METAR Data
IDs: Format: Raw Decoded Include TAF

Data at: 1727 UTC 21 Sep 2018

K66R 211715Z AUTO 16009KT 10SM SCT025 SCT033 SCT042 31/24 A2997 RMK AO2 T03130240
K66R 211655Z AUTO 17007KT 10SM SCT025 SCT033 SCT041 A2997 RMK AO2
K66R 211635Z AUTO 18008KT 10SM SCT025 SCT030 SCT036 A2998 RMK AO2 LTG DSNT E
K66R 211615Z AUTO 18008KT 10SM SCT023 SCT030 SCT036 30/24 A2998 RMK AO2 T02990239
K66R 211555Z AUTO 17009KT 10SM SCT017 SCT024 BKN037 29/24 A2998 RMK AO2 T02940239
K66R 211535Z AUTO 16010KT 10SM SCT017 SCT022 SCT029 A2997 RMK AO2
K66R 211515Z AUTO 17009KT 10SM SCT015 BKN021 BKN026 29/24 A2998 RMK AO2 T02900243
K66R 211455Z AUTO 16008KT 10SM BKN014 BKN023 BKN028 29/25 A2998 RMK AO2 T02860249
K66R 211435Z AUTO 16008KT 10SM CLR A2997 RMK AO2
K66R 211415Z AUTO 15007KT 10SM CLR A2997 RMK AO2
K66R 211355Z AUTO 14006KT 10SM CLR 27/24 A2997 RMK AO2 T02690244
K66R 211335Z AUTO 13003KT 10SM CLR 26/24 A2997 RMK AO2 T02620242
K66R 211315Z AUTO 12003KT 10SM CLR 26/24 A2997 RMK AO2 T02580241
K66R 211255Z AUTO 12003KT 10SM CLR 26/24 A2996 RMK AO2 T02550240
K66R 211235Z AUTO 12003KT 10SM CLR 25/24 A2995 RMK AO2 T02530240
K66R 211215Z AUTO 00000KT 10SM SCT020 25/24 A2995 RMK AO2 T02520240
K66R 211155Z AUTO 12003KT 7SM SCT020 25/24 A2994 RMK AO2 70013 T02500237 10256 20250
K66R 211135Z AUTO 12003KT 7SM CLR 25/24 A2994 RMK AO2 T02500237
K66R 211115Z AUTO 12003KT 10SM SCT018 25/24 A2994 RMK AO2 T02510239
K66R 211055Z AUTO 11003KT 10SM SCT018 25/24 A2994 RMK AO2 T02510238
K66R 211035Z AUTO 00000KT 10SM SCT016 25/24 A2993 RMK AO2 T02520239
K66R 211015Z AUTO 00000KT 10SM CLR 25/24 A2993 RMK AO2 LTG DSNT E T02520238
K66R 210955Z AUTO 00000KT 10SM CLR 25/24 A2993 RMK AO2 T02540240
K66R 210935Z AUTO 00000KT 10SM CLR 26/24 A2993 RMK AO2 T02550240
K66R 210915Z AUTO 00000KT 10SM CLR 26/24 A2993 RMK AO2 T02550240
K66R 210855Z AUTO 14003KT 10SM CLR 26/24 A2993 RMK AO2 T02550240
K66R 210835Z AUTO 14003KT 10SM CLR 26/24 A2993 RMK AO2 T02560240
K66R 210815Z AUTO 14003KT 10SM SCT110 26/24 A2994 RMK AO2 T02550240
K66R 210755Z AUTO 00000KT 10SM CLR 26/24 A2994 RMK AO2 T02550240
K66R 210735Z AUTO 16003KT 10SM CLR 26/24 A2994 RMK AO2 T02550240
K66R 210715Z AUTO 14003KT 10SM SCT018 SCT023 26/24 A2994 RMK AO2 T02550240
K66R 210655Z AUTO 14004KT 10SM SCT018 SCT023 26/24 A2995 RMK AO2 T02550240
K66R 210635Z AUTO 13003KT 10SM CLR 26/24 A2995 RMK AO2 T02550240
K66R 210615Z AUTO 13003KT 10SM CLR 26/24 A2995 RMK AO2 T02550240
K66R 210555Z AUTO 13003KT 10SM CLR 26/24 A2995 RMK AO2 T02560240 10260 20253
K66R 210535Z AUTO 13003KT 10SM CLR 26/24 A2996 RMK AO2 T02560240
K66R 210515Z AUTO 14004KT 10SM CLR 26/24 A2997 RMK AO2 T02550240
K66R 210455Z AUTO 13003KT 10SM -RA SCT016 SCT025 26/24 A2997 RMK AO2 T02550240
K66R 210435Z AUTO 14003KT 10SM BKN016 BKN022 BKN028 26/24 A2998 RMK AO2 T02550240
K66R 210415Z AUTO 00000KT 10SM BKN018 BKN024 BKN031 26/24 A2998 RMK AO2 T02550240
K66R 210355Z AUTO 13003KT 10SM SCT020 SCT025 26/24 A2997 RMK AO2 T02550240
K66R 210335Z AUTO 00000KT 10SM CLR 25/24 A2997 RMK AO2 T02530238
K66R 210315Z AUTO 00000KT 10SM CLR 26/24 A2997 RMK AO2 T02550238
K66R 210255Z AUTO 12003KT 10SM CLR 26/24 A2995 RMK AO2 T02550238
K66R 210235Z AUTO 00000KT 10SM CLR 26/24 A2995 RMK AO2 T02570238
K66R 210215Z AUTO 14004KT 10SM CLR 26/24 A2994 RMK AO2 LTG DSNT SW AND W T02590240
K66R 210155Z AUTO 14003KT 10SM CLR 26/24 A2993 RMK AO2 T02580241
K66R 210135Z AUTO 00000KT 10SM -DZ CLR 26/24 A2993 RMK AO2 T02600243
K66R 210115Z AUTO 00000KT 10SM CLR 26/25 A2993 RMK AO2 T02600245
K66R 210055Z AUTO 00000KT 10SM -DZ SCT023 SCT041 SCT049 26/25 A2993 RMK AO2 T02580245
K66R 210035Z AUTO 00000KT 10SM SCT025 26/25 A2993 RMK AO2 LTG DSNT NE T02600246
K66R 210015Z AUTO 00000KT 10SM SCT027 SCT031 26/25 A2992 RMK AO2 LTG DSNT NE T02600245
K66R 202355Z AUTO 00000KT 10SM -RA BKN027 BKN041 BKN060 26/25 A2992 RMK AO2 LTG DSNT NE P0003 60013 T02600245 10322 20260
K66R 202335Z AUTO 00000KT 10SM -RA BKN029 BKN060 OVC100 26/24 A2992 RMK AO2 LTG DSNT NE P0001 T02600243
K66R 202315Z AUTO 00000KT 10SM -RA SCT060 SCT070 OVC090 26/24 A2992 RMK AO2 LTG DSNT NE AND E T02620243
K66R 202255Z AUTO 00000KT 10SM -VCTSRA SCT075 OVC090 27/24 A2991 RMK AO2 LTG DSNT NE AND E P0001 T02650241
K66R 202235Z AUTO 00000KT 10SM -VCTSRA SCT050 SCT070 BKN090 27/24 A2991 RMK AO2 LTG DSNT NE AND NW P0001 T02660244
K66R 202215Z AUTO 22003KT 10SM -RA SCT045 SCT060 BKN085 27/24 A2992 RMK AO2 LTG DSNT NE AND E T02690241
K66R 202155Z AUTO 22003KT 10SM VCTSRA SCT037 BKN047 BKN090 27/23 A2991 RMK AO2 LTG DSNT NE SW AND NW P0009 T02660234
K66R 202135Z AUTO 25004G17KT 4SM -RA BKN037 OVC047 26/23 A2990 RMK AO2 LTG DSNT W AND NW P0009 T02620227
K66R 202115Z AUTO 15006KT 10SM BKN039 OVC050 31/22 A2990 RMK AO2 LTG DSNT SW THRU NW T03050217
K66R 202055Z AUTO 16008KT 10SM VCTS SCT039 BKN050 31/21 A2990 RMK AO2 LTG DSNT NE AND W T03140209
K66R 202035Z AUTO 17009KT 10SM SCT031 SCT037 SCT044 A2990 RMK AO2 LTG DSNT W
K66R 202015Z AUTO 14008G14KT 10SM SCT029 SCT035 SCT042 31/22 A2990 RMK AO2 LTG DSNT ALQS T03100223
K66R 201955Z AUTO 17007KT 10SM SCT027 BKN033 BKN040 31/23 A2992 RMK AO2 LTG DSNT ALQS T03140226
K66R 201935Z AUTO 19006KT 10SM SCT030 SCT037 BKN065 31/23 A2994 RMK AO2 LTG DSNT N NE AND SW T03070230
K66R 201915Z AUTO 14003KT 10SM -RA SCT065 BKN100 29/24 A2994 RMK AO2 LTG DSNT N THRU E T02880235
K66R 201855Z AUTO 18005KT 10SM SCT023 29/23 A2995 RMK AO2 LTG DSNT W T02930229
K66R 201835Z AUTO 15007KT 10SM SCT023 30/23 A2995 RMK AO2 LTG DSNT N T02980228
K66R 201815Z AUTO 14008KT 10SM CLR A2996 RMK AO2
K66R 201755Z AUTO 16008KT 10SM SCT022 SCT080 30/23 A2998 RMK AO2 LTG DSNT E T02980227
K66R 201735Z AUTO 16007KT 10SM SCT020 SCT026 30/23 A2998 RMK AO2 LTG DSNT E AND NW T02950233
K66R 201715Z AUTO 17005KT 10SM BKN018 BKN026 BKN039 29/23 A2999 RMK AO2 LTG DSNT SE AND NW T02920234
K66R 201655Z AUTO 16007KT 10SM SCT018 BKN026 BKN041 29/24 A2999 RMK AO2 LTG DSNT E SE AND NW T02920240
K66R 201635Z AUTO 17005KT 10SM SCT018 SCT028 BKN070 29/24 A3000 RMK AO2 LTG DSNT E T02880240
K66R 201615Z AUTO 16006KT 10SM SCT015 SCT028 BKN045 29/24 A3000 RMK AO2 LTG DSNT SE T02870241
K66R 201555Z AUTO 15005KT 10SM SCT011 SCT080 28/24 A3000 RMK AO2 T02840244
K66R 201535Z AUTO 14006KT 10SM CLR 28/24 A3000 RMK AO2 LTG DSNT W T02800244
K66R 201515Z AUTO 13005KT 10SM CLR A2999 RMK AO2
K66R 201455Z AUTO 12005KT 10SM CLR A2999 RMK AO2
K66R 201435Z AUTO 09003KT 10SM SCT006 26/24 A2998 RMK AO2 LTG DSNT NE T02610241
K66R 201415Z AUTO 10003KT 10SM CLR 26/24 A2998 RMK AO2 T02600240
K66R 201355Z AUTO 16003KT 10SM CLR 26/24 A2998 RMK AO2 LTG DSNT E T02550236
K66R 201335Z AUTO 10003KT 10SM SCT018 25/24 A2997 RMK AO2 T02520235
K66R 201315Z AUTO 00000KT 5SM BR BKN020 25/23 A2997 RMK AO2 T02470232
K66R 201255Z AUTO 00000KT 4SM BR BKN020 24/23 A2997 RMK AO2 LTG DSNT W T02400227
K66R 201235Z AUTO 00000KT 4SM BR CLR 24/22 A2995 RMK AO2 T02350223
K66R 201215Z AUTO 12003KT 4SM BR CLR 23/22 A2995 RMK AO2 T02330221
K66R 201155Z AUTO 00000KT 5SM BR CLR 23/22 A2995 RMK AO2 LTG DSNT W T02330221 10245 20233
K66R 201135Z AUTO 00000KT 7SM CLR 23/22 A2995 RMK AO2 T02340221
K66R 201115Z AUTO 00000KT 5SM BR SCT017 24/22 A2994 RMK AO2 T02350222
K66R 201055Z AUTO 00000KT 7SM SCT017 24/22 A2994 RMK AO2 T02350223
K66R 201035Z AUTO 00000KT 7SM SCT015 SCT020 24/22 A2994 RMK AO2 T02350223
K66R 201015Z AUTO 10003KT 7SM SCT017 24/23 A2994 RMK AO2 T02360225
K66R 200955Z AUTO 00000KT 7SM SCT019 24/22 A2993 RMK AO2 T02350223
K66R 200935Z AUTO 00000KT 7SM BKN019 24/22 A2994 RMK AO2 T02350223
K66R 200915Z AUTO 00000KT 10SM CLR 24/22 A2995 RMK AO2 T02350222
K66R 200855Z AUTO 00000KT 10SM CLR 24/22 A2995 RMK AO2 T02360223
K66R 200835Z AUTO 09003KT 10SM CLR 24/22 A2995 RMK AO2 T02380223
K66R 200815Z AUTO 13003KT 10SM CLR 24/22 A2995 RMK AO2 T02380223
K66R 200755Z AUTO 00000KT 10SM CLR 24/22 A2996 RMK AO2 T02400223
K66R 200735Z AUTO 00000KT 10SM CLR 24/22 A2995 RMK AO2 T02400224
K66R 200715Z AUTO 00000KT 10SM CLR 24/23 A2996 RMK AO2 T02400225
K66R 200655Z AUTO 00000KT 10SM CLR 24/23 A2997 RMK AO2 T02410225
K66R 200635Z AUTO 00000KT 10SM CLR 24/23 A2996 RMK AO2 T02400225
K66R 200615Z AUTO 00000KT 10SM CLR 25/23 A2997 RMK AO2 T02450226
K66R 200555Z AUTO 00000KT 10SM CLR 25/23 A2996 RMK AO2 T02450226
K66R 200535Z AUTO 00000KT 10SM CLR 25/23 A2997 RMK AO2 T02450225